Aérodrome :
LOGIN :

S'inscrire | Disclaimer

   EN    FR    IT 

 










Légende :    VFR   VFR Marginal   IFR   IFR Intensif   IFR Très Intensif
Visi : 
Plafond : 
>= 8 km
>= 3000ft
5 à 8 km
1000 à 3000 ft
1500m à 5 km
500 à 1000 ft
800 à 1500m
200 à 500 ft
< 800m
< 200 ft
Symboles :   Orages  Brouillard  Fortes neiges  Fortes précipitations  Vent > 20 kt
SIGMETs :   Divers  Orages  Givrage  Turbulence  Onde Orograph.  Cendres Volcan.






- Altitude de l'aérodrome : -15 ft
- Code IATA : RTM


EHRD - Rotterdam Zestienhoven

DERNIER METAR :
  • 051925Z AUTO 20015KT 170V230 1900 BR OVC001 03/03 Q1016 TEMPO 1200 OVC001

METARs EXPIRÉS :
  • 051855Z AUTO 20015KT 160V220 1900 BR OVC001 03/03 Q1016 TEMPO 1200
  • 051825Z AUTO 20014G25KT 160V250 2500 BR OVC002 03/03 Q1016 TEMPO 1200
  • 051755Z AUTO 19012KT 160V230 2300 BR OVC002 03/03 Q1017 TEMPO 1200
  • 051725Z AUTO 20013KT 170V230 2300 BR OVC002 04/03 Q1017 TEMPO 1200
  • 051655Z AUTO 20013KT 170V240 2400 BR OVC002 04/03 Q1017 BECMG 0800 BKN001
  • 051625Z AUTO 21014KT 2700 BR BKN002 OVC004 04/04 Q1017 BECMG 0800 BKN001

TAF TAF EHRD
Valide du 05 à 18h jusqu'au 07 à 00h UTC


051721Z 0518/0624 21014KT 2000 BR BKN002
TEMPO 0518/0521 1200
BECMG 0521/0524 21020G30KT 4000 -RADZ BR BKN006
PROB40
TEMPO 0600/0618 2500 RADZ BKN004
BECMG 0617/0620 23015G25KT 9999 NSW BKN010
BECMG 0618/0621 24012KT BKN018
TEMPO 0618/0624 6000 SHRA BKN014 SCT018CB
PROB30
TEMPO 0620/0624 24020G30KT 4000 TSRA BKN010 SCT012CB



MET'MAP, la Météo Aéronautique d'un coup d'oeil ! - Copyright ORBIFLY Décembre 2007 - Disclaimer

ORBIFLY MET'MAP TEAM :

Programmation & Développement : Alexandra Zaïnal
Sur une idée originale de : Baudouin d'Aumeries
Assistance à la programmation : Marc-Olivier Méhu
Soutien technique & logistique : Manuel Goepfert

Contact : metmap@orbifly.com




SOURCES & CREDITS :

   NOAA